createdAt,value
2018-12-22T00:02:18.031Z,13.53
2018-12-22T00:04:51.796Z,13.67
2018-12-22T00:07:25.037Z,13.63
2018-12-22T00:09:57.854Z,13.59
2018-12-22T00:12:29.656Z,13.65
2018-12-22T00:15:00.832Z,13.75
2018-12-22T00:17:34.638Z,13.74
2018-12-22T00:20:04.927Z,13.81
2018-12-22T00:22:38.223Z,13.82
2018-12-22T00:25:09.878Z,13.82
2018-12-22T00:27:40.892Z,13.80
2018-12-22T00:30:13.437Z,13.72
2018-12-22T00:32:45.213Z,13.73
2018-12-22T00:35:22.485Z,13.71
2018-12-22T00:37:54.576Z,13.64
2018-12-22T00:40:25.510Z,13.63
2018-12-22T00:42:57.174Z,13.65
2018-12-22T00:45:37.302Z,13.72
2018-12-22T00:48:09.570Z,13.69
2018-12-22T00:50:39.916Z,13.58
2018-12-22T00:53:18.972Z,13.62
2018-12-22T00:55:51.861Z,13.52
2018-12-22T00:58:30.766Z,13.41
2018-12-22T01:01:02.943Z,13.45
2018-12-22T01:03:41.210Z,13.32
2018-12-22T01:06:13.212Z,13.20
2018-12-22T01:08:45.951Z,13.14
2018-12-22T01:11:16.596Z,13.07
2018-12-22T01:13:51.583Z,13.12
2018-12-22T01:16:31.769Z,12.81
2018-12-22T01:19:17.356Z,13.12
2018-12-22T01:21:51.413Z,13.11
2018-12-22T01:24:25.542Z,13.10
2018-12-22T01:26:58.304Z,13.09
2018-12-22T01:29:32.186Z,13.11
2018-12-22T01:32:07.491Z,13.06
2018-12-22T01:34:39.606Z,13.09
2018-12-22T01:37:09.621Z,13.20
2018-12-22T01:39:40.353Z,13.20
2018-12-22T01:42:13.574Z,13.17
2018-12-22T01:44:46.532Z,13.14
2018-12-22T01:47:18.606Z,13.11
2018-12-22T01:49:52.314Z,13.05
2018-12-22T01:52:25.546Z,13.04
2018-12-22T01:54:58.256Z,13.15
2018-12-22T01:57:27.913Z,13.11
2018-12-22T01:59:58.994Z,13.10
2018-12-22T02:02:28.610Z,13.12
2018-12-22T02:04:58.346Z,13.11
2018-12-22T02:07:32.275Z,13.25
2018-12-22T02:10:06.383Z,13.30
2018-12-22T02:12:38.147Z,13.24
2018-12-22T02:17:49.809Z,13.31
2018-12-22T02:20:24.805Z,13.21
2018-12-22T02:22:58.331Z,13.31
2018-12-22T02:25:41.411Z,13.30
2018-12-22T02:28:14.498Z,12.88
2018-12-22T02:30:46.860Z,13.27
2018-12-22T02:33:20.723Z,13.34
2018-12-22T02:35:56.012Z,13.37
2018-12-22T02:38:30.869Z,13.38
2018-12-22T02:41:07.496Z,13.35
2018-12-22T02:43:41.856Z,13.25
2018-12-22T02:48:52.033Z,13.17
2018-12-22T02:51:23.094Z,13.21
2018-12-22T02:53:53.830Z,13.32
2018-12-22T02:56:27.148Z,13.23
2018-12-22T02:59:05.949Z,13.24
2018-12-22T03:01:33.746Z,13.35
2018-12-22T03:04:04.364Z,13.37
2018-12-22T03:06:35.453Z,13.35
2018-12-22T03:09:08.669Z,13.45
2018-12-22T03:11:41.393Z,13.38
2018-12-22T03:14:16.324Z,13.43
2018-12-22T03:16:53.736Z,13.31
2018-12-22T03:19:24.633Z,13.36
2018-12-22T03:22:00.270Z,13.37
2018-12-22T03:24:31.194Z,13.34
2018-12-22T03:27:05.805Z,13.36
2018-12-22T03:29:39.222Z,13.46
2018-12-22T03:32:13.066Z,13.38
2018-12-22T03:34:45.698Z,13.24
2018-12-22T03:37:17.977Z,13.28
2018-12-22T03:39:50.788Z,13.16
2018-12-22T03:42:22.084Z,13.07
2018-12-22T03:44:56.691Z,13.08
2018-12-22T03:47:27.075Z,12.97
2018-12-22T03:49:57.323Z,12.90
2018-12-22T03:55:17.922Z,12.71
2018-12-22T03:57:49.241Z,12.66
2018-12-22T04:00:21.298Z,12.70
2018-12-22T04:02:53.734Z,12.65
2018-12-22T04:08:03.325Z,12.57
2018-12-22T04:10:34.121Z,12.59
2018-12-22T04:13:04.285Z,12.57
2018-12-22T04:15:34.586Z,12.51
2018-12-22T04:18:03.038Z,12.46
2018-12-22T04:20:33.846Z,12.41
2018-12-22T04:23:02.707Z,12.52
2018-12-22T04:25:35.067Z,12.49
2018-12-22T04:28:04.585Z,12.51
2018-12-22T04:30:37.164Z,12.62
2018-12-22T04:33:07.618Z,12.65
2018-12-22T04:35:43.169Z,12.38
2018-12-22T04:40:35.156Z,12.62
2018-12-22T04:43:07.664Z,12.63
2018-12-22T04:45:39.706Z,12.63
2018-12-22T04:48:09.423Z,12.72
2018-12-22T04:50:40.286Z,12.78
2018-12-22T04:53:11.500Z,12.61
2018-12-22T04:55:41.071Z,12.61
2018-12-22T04:58:10.402Z,12.62
2018-12-22T05:00:41.652Z,12.70
2018-12-22T05:03:14.007Z,12.67
2018-12-22T05:05:46.012Z,12.64
2018-12-22T05:08:15.021Z,12.67
2018-12-22T05:10:43.962Z,12.65
2018-12-22T05:13:13.192Z,12.59
2018-12-22T05:15:41.919Z,12.67
2018-12-22T05:18:10.443Z,12.64
2018-12-22T05:20:39.377Z,12.62
2018-12-22T05:23:08.756Z,12.64
2018-12-22T05:25:45.361Z,12.68
2018-12-22T05:28:14.603Z,12.57
2018-12-22T05:30:43.883Z,12.61
2018-12-22T05:33:12.985Z,12.58
2018-12-22T05:37:16.607Z,12.56
2018-12-22T05:39:45.584Z,12.53
2018-12-22T05:42:14.464Z,12.58
2018-12-22T05:44:43.745Z,12.59
2018-12-22T05:47:12.723Z,12.75
2018-12-22T05:49:41.917Z,12.86
2018-12-22T05:52:13.307Z,12.86
2018-12-22T05:54:42.347Z,12.80
2018-12-22T05:59:01.550Z,12.88
2018-12-22T06:01:31.822Z,12.63
2018-12-22T06:04:01.332Z,12.26
2018-12-22T06:06:30.247Z,12.08
2018-12-22T06:09:00.487Z,11.96
2018-12-22T06:11:30.193Z,11.80
2018-12-22T06:13:59.272Z,11.59
2018-12-22T06:16:27.989Z,11.41
2018-12-22T06:18:56.591Z,11.34
2018-12-22T06:21:24.784Z,11.28
2018-12-22T06:23:53.094Z,11.20
2018-12-22T06:26:23.030Z,11.23
2018-12-22T06:28:52.343Z,11.30
2018-12-22T06:31:22.586Z,11.35
2018-12-22T06:33:51.347Z,11.41
2018-12-22T06:36:19.811Z,11.47
2018-12-22T06:38:50.263Z,11.57
2018-12-22T06:41:19.220Z,11.62
2018-12-22T06:43:47.627Z,11.65
2018-12-22T06:46:17.672Z,11.74
2018-12-22T06:48:55.707Z,11.78
2018-12-22T06:51:45.392Z,11.77
2018-12-22T06:54:15.610Z,11.91
2018-12-22T06:56:48.607Z,12.09
2018-12-22T06:59:22.497Z,12.13
2018-12-22T07:01:51.066Z,12.27
2018-12-22T07:04:21.250Z,12.31
2018-12-22T07:06:50.921Z,12.38
2018-12-22T07:09:29.323Z,12.43
2018-12-22T07:11:58.491Z,12.39
2018-12-22T07:14:30.302Z,12.45
2018-12-22T07:16:59.567Z,12.37
2018-12-22T07:19:28.678Z,12.35
2018-12-22T07:21:58.605Z,12.32
2018-12-22T07:24:30.013Z,12.34
2018-12-22T07:26:59.196Z,12.31
2018-12-22T07:31:48.552Z,12.34
2018-12-22T07:34:19.130Z,12.33
2018-12-22T07:36:47.463Z,12.30
2018-12-22T07:39:15.976Z,12.34
2018-12-22T07:41:52.821Z,12.30
2018-12-22T07:44:22.497Z,12.23
2018-12-22T07:46:54.688Z,12.25
2018-12-22T07:49:28.013Z,12.34
2018-12-22T07:51:59.306Z,12.34
2018-12-22T07:54:29.388Z,12.34
2018-12-22T07:56:59.941Z,12.31
2018-12-22T07:59:31.492Z,12.28
2018-12-22T08:02:00.155Z,12.27
2018-12-22T08:04:33.526Z,12.28
2018-12-22T08:07:05.254Z,12.39
2018-12-22T08:09:34.532Z,12.47
2018-12-22T08:12:03.417Z,12.53
2018-12-22T08:14:34.242Z,12.58
2018-12-22T08:17:04.602Z,12.58
2018-12-22T08:19:38.176Z,12.52
2018-12-22T08:22:08.504Z,12.51
2018-12-22T08:24:37.297Z,12.53
2018-12-22T08:27:07.221Z,12.61
2018-12-22T08:29:46.760Z,12.60
2018-12-22T08:32:19.719Z,12.54
2018-12-22T08:34:49.720Z,12.58
2018-12-22T08:37:20.931Z,12.61
2018-12-22T08:39:55.054Z,12.77
2018-12-22T08:42:25.950Z,12.76
2018-12-22T08:44:54.330Z,12.66
2018-12-22T08:47:22.795Z,12.60
2018-12-22T08:49:52.873Z,12.67
2018-12-22T08:52:21.722Z,12.73
2018-12-22T08:54:50.781Z,12.72
2018-12-22T08:57:19.846Z,12.64
2018-12-22T08:59:50.258Z,12.67
2018-12-22T09:02:23.113Z,12.75
2018-12-22T09:05:12.549Z,12.34
2018-12-22T09:07:42.701Z,12.88
2018-12-22T09:10:14.706Z,12.92
2018-12-22T09:12:51.849Z,12.91
2018-12-22T09:15:22.805Z,13.01
2018-12-22T09:17:55.046Z,13.05
2018-12-22T09:20:26.019Z,13.06
2018-12-22T09:23:04.547Z,13.15
2018-12-22T09:25:41.501Z,13.25
2018-12-22T09:28:14.691Z,13.18
2018-12-22T09:31:03.352Z,13.21
2018-12-22T09:33:36.796Z,13.08
2018-12-22T09:37:29.620Z,13.13
2018-12-22T09:39:59.170Z,13.37
2018-12-22T09:42:28.610Z,13.68
2018-12-22T09:45:05.902Z,13.67
2018-12-22T09:47:36.422Z,13.98
2018-12-22T09:50:06.353Z,14.28
2018-12-22T09:52:35.401Z,14.28
2018-12-22T09:55:04.975Z,13.95
2018-12-22T09:57:33.692Z,13.70
2018-12-22T10:00:05.652Z,13.47
2018-12-22T10:02:34.728Z,13.47
2018-12-22T10:05:06.037Z,13.44
2018-12-22T10:07:35.341Z,13.42
2018-12-22T10:10:04.838Z,13.36
2018-12-22T10:12:36.681Z,13.37
2018-12-22T10:17:50.253Z,13.45
2018-12-22T10:20:20.257Z,13.48
2018-12-22T10:22:49.121Z,13.48
2018-12-22T10:25:17.836Z,13.35
2018-12-22T10:27:49.415Z,13.42
2018-12-22T10:30:21.121Z,13.52
2018-12-22T10:32:51.530Z,13.36
2018-12-22T10:35:27.971Z,13.23
2018-12-22T10:38:11.024Z,13.27
2018-12-22T10:43:33.233Z,13.39
2018-12-22T10:46:14.634Z,13.40
2018-12-22T10:48:45.754Z,13.45
2018-12-22T10:53:58.158Z,13.68
2018-12-22T10:56:27.579Z,13.70
2018-12-22T10:58:57.737Z,13.55
2018-12-22T11:01:31.831Z,13.53
2018-12-22T11:04:08.442Z,13.31
2018-12-22T11:06:44.743Z,13.09
2018-12-22T11:09:21.045Z,13.13
2018-12-22T11:11:52.447Z,13.09
2018-12-22T11:14:21.847Z,13.00
2018-12-22T11:16:50.980Z,13.03
2018-12-22T11:19:20.831Z,13.00
2018-12-22T11:21:49.396Z,13.05
2018-12-22T11:24:19.370Z,13.01
2018-12-22T11:26:50.439Z,13.07
2018-12-22T11:29:21.345Z,13.64
2018-12-22T11:31:50.402Z,14.01
2018-12-22T11:34:20.598Z,14.40
2018-12-22T11:36:52.029Z,14.30
2018-12-22T11:39:21.456Z,14.73
2018-12-22T11:41:50.011Z,14.94
2018-12-22T11:44:19.963Z,14.35
2018-12-22T11:46:48.528Z,14.21
2018-12-22T11:49:22.141Z,14.04
2018-12-22T11:51:50.565Z,13.96
2018-12-22T11:54:25.199Z,13.86
2018-12-22T11:57:09.977Z,13.82
2018-12-22T11:59:58.702Z,13.83
2018-12-22T12:02:38.784Z,13.89
2018-12-22T12:05:16.030Z,13.75
2018-12-22T12:07:54.980Z,13.60
2018-12-22T12:10:28.489Z,13.72
2018-12-22T12:15:34.302Z,13.82
2018-12-22T12:18:42.426Z,13.77
2018-12-22T12:21:14.086Z,13.65
2018-12-22T12:23:42.877Z,13.58
2018-12-22T12:26:15.661Z,13.59
2018-12-22T12:28:45.710Z,13.74
2018-12-22T12:31:17.415Z,13.96
2018-12-22T12:33:46.187Z,14.00
2018-12-22T12:36:18.503Z,13.89
2018-12-22T12:38:50.652Z,13.79
2018-12-22T12:41:21.397Z,13.89
2018-12-22T12:46:45.826Z,14.04
2018-12-22T12:49:16.832Z,13.96
2018-12-22T12:51:50.755Z,13.89
2018-12-22T12:54:22.790Z,13.97
2018-12-22T12:56:59.922Z,14.10
2018-12-22T12:59:32.601Z,14.06
2018-12-22T13:02:06.304Z,14.20
2018-12-22T13:04:37.876Z,14.18
2018-12-22T13:07:06.811Z,14.27
2018-12-22T13:09:35.104Z,14.16
2018-12-22T13:12:13.275Z,14.05
2018-12-22T13:14:41.616Z,14.14
2018-12-22T13:17:11.321Z,14.15
2018-12-22T13:19:40.590Z,14.26
2018-12-22T13:22:10.311Z,14.19
2018-12-22T13:24:39.319Z,14.07
2018-12-22T13:27:13.734Z,14.04
2018-12-22T13:29:43.521Z,14.13
2018-12-22T13:32:14.592Z,14.09
2018-12-22T13:34:46.686Z,14.14
2018-12-22T13:37:17.508Z,14.14
2018-12-22T13:39:50.794Z,13.95
2018-12-22T13:42:20.911Z,13.73
2018-12-22T13:44:51.784Z,13.60
2018-12-22T13:47:20.711Z,13.51
2018-12-22T13:49:54.658Z,13.28
2018-12-22T13:52:23.682Z,12.89
2018-12-22T13:54:53.721Z,12.76
2018-12-22T13:57:24.646Z,12.74
2018-12-22T14:02:39.103Z,12.95
2018-12-22T14:05:11.075Z,13.16
2018-12-22T14:07:47.239Z,13.31
2018-12-22T14:10:23.008Z,13.18
2018-12-22T14:12:59.701Z,13.09
2018-12-22T14:15:40.502Z,13.18
2018-12-22T14:21:00.455Z,13.13
2018-12-22T14:23:38.600Z,13.20
2018-12-22T14:26:17.389Z,13.38
2018-12-22T14:28:55.786Z,13.47
2018-12-22T14:31:27.466Z,13.67
2018-12-22T14:34:06.142Z,13.76
2018-12-22T14:36:40.076Z,13.86
2018-12-22T14:39:18.038Z,13.96
2018-12-22T14:41:46.690Z,13.87
2018-12-22T14:44:16.609Z,13.94
2018-12-22T14:46:45.655Z,13.95
2018-12-22T14:49:15.756Z,13.96
2018-12-22T14:51:45.831Z,13.96
2018-12-22T14:54:15.844Z,13.92
2018-12-22T14:56:46.608Z,13.89
2018-12-22T15:01:55.178Z,13.92
2018-12-22T15:04:30.867Z,13.91
2018-12-22T15:07:06.919Z,13.77
2018-12-22T15:09:42.475Z,13.68
2018-12-22T15:12:12.991Z,13.68
2018-12-22T15:15:42.717Z,13.49
2018-12-22T15:18:12.784Z,13.27
2018-12-22T15:20:42.207Z,13.22
2018-12-22T15:23:15.849Z,13.21
2018-12-22T15:25:48.526Z,13.21
2018-12-22T15:28:17.787Z,13.21
2018-12-22T15:30:46.790Z,13.09
2018-12-22T15:33:15.461Z,13.04
2018-12-22T15:36:06.703Z,13.07
2018-12-22T15:38:39.748Z,13.03
2018-12-22T15:41:08.769Z,12.99
2018-12-22T15:43:41.241Z,12.97
2018-12-22T15:46:15.106Z,12.99
2018-12-22T15:48:49.061Z,13.02
2018-12-22T15:51:20.474Z,13.10
2018-12-22T15:56:31.578Z,13.06
2018-12-22T15:59:00.469Z,13.07
2018-12-22T16:01:31.423Z,12.67
2018-12-22T16:04:15.952Z,13.13
2018-12-22T16:06:46.149Z,13.08
2018-12-22T16:09:17.191Z,13.01
2018-12-22T16:11:47.343Z,13.03
2018-12-22T16:14:16.708Z,13.09
2018-12-22T16:16:49.990Z,13.04
2018-12-22T16:19:21.963Z,12.98
2018-12-22T16:21:58.711Z,12.89
2018-12-22T16:24:28.673Z,12.80
2018-12-22T16:27:02.538Z,12.76
2018-12-22T16:29:38.210Z,12.65
2018-12-22T16:32:11.094Z,12.65
2018-12-22T16:37:24.094Z,12.63
2018-12-22T16:39:55.364Z,12.64
2018-12-22T16:42:29.836Z,12.70
2018-12-22T16:47:41.627Z,12.64
2018-12-22T16:50:12.318Z,12.64
2018-12-22T16:52:40.873Z,12.62
2018-12-22T16:55:15.006Z,12.67
2018-12-22T16:57:45.939Z,12.62
2018-12-22T17:00:22.485Z,12.53
2018-12-22T17:03:00.728Z,12.56
2018-12-22T17:05:32.428Z,12.61
2018-12-22T17:08:18.267Z,12.63
2018-12-22T17:10:51.325Z,12.59
2018-12-22T17:13:21.518Z,12.62
2018-12-22T17:15:56.448Z,12.60
2018-12-22T17:18:28.612Z,12.62
2018-12-22T17:21:31.865Z,12.62
2018-12-22T17:24:10.827Z,12.64
2018-12-22T17:26:41.069Z,12.63
2018-12-22T17:29:15.688Z,12.53
2018-12-22T17:31:50.033Z,12.58
2018-12-22T17:34:23.333Z,12.58
2018-12-22T17:36:52.154Z,12.59
2018-12-22T17:39:21.794Z,12.59
2018-12-22T17:41:53.747Z,12.55
2018-12-22T17:44:24.200Z,12.60
2018-12-22T17:46:58.158Z,12.64
2018-12-22T17:49:37.225Z,12.59
2018-12-22T17:52:08.067Z,12.56
2018-12-22T17:54:40.380Z,12.52
2018-12-22T17:57:09.953Z,12.54
2018-12-22T17:59:47.571Z,12.50
2018-12-22T18:02:16.622Z,12.48
2018-12-22T18:04:53.422Z,12.51
2018-12-22T18:07:23.935Z,12.54
2018-12-22T18:10:02.978Z,12.58
2018-12-22T18:12:38.677Z,12.51
2018-12-22T18:15:29.608Z,12.55
2018-12-22T18:18:00.130Z,12.53
2018-12-22T18:20:31.373Z,12.55
2018-12-22T18:23:04.938Z,12.53
2018-12-22T18:25:44.699Z,12.57
2018-12-22T18:28:17.140Z,12.56
2018-12-22T18:30:51.618Z,12.55
2018-12-22T18:33:24.261Z,12.60
2018-12-22T18:35:54.887Z,12.66
2018-12-22T18:38:27.801Z,12.65
2018-12-22T18:41:04.678Z,12.59
2018-12-22T18:43:36.402Z,12.62
2018-12-22T18:46:07.648Z,12.55
2018-12-22T18:48:39.235Z,12.55
2018-12-22T18:51:09.872Z,12.52
2018-12-22T18:53:38.391Z,12.54
2018-12-22T18:56:10.406Z,12.51
2018-12-22T18:58:39.685Z,12.47
2018-12-22T19:01:10.753Z,12.33
2018-12-22T19:03:44.902Z,12.27
2018-12-22T19:06:18.164Z,12.24
2018-12-22T19:11:34.791Z,12.21
2018-12-22T19:14:04.672Z,12.18
2018-12-22T19:16:43.029Z,12.18
2018-12-22T19:19:21.022Z,12.19
2018-12-22T19:21:53.677Z,12.22
2018-12-22T19:24:28.686Z,12.25
2018-12-22T19:27:03.305Z,12.28
2018-12-22T19:29:35.548Z,12.28
2018-12-22T19:32:07.753Z,12.33
2018-12-22T19:34:38.342Z,12.42
2018-12-22T19:37:09.603Z,12.39
2018-12-22T19:39:40.210Z,12.34
2018-12-22T19:42:12.191Z,12.29
2018-12-22T19:44:43.019Z,12.29
2018-12-22T19:47:12.547Z,12.42
2018-12-22T19:49:43.541Z,12.38
2018-12-22T19:52:13.587Z,12.34
2018-12-22T19:54:43.255Z,12.27
2018-12-22T19:57:14.657Z,12.24
2018-12-22T19:59:49.083Z,12.19
2018-12-22T20:02:23.338Z,12.20
2018-12-22T20:07:02.988Z,12.16
2018-12-22T20:09:33.702Z,12.18
2018-12-22T20:12:06.396Z,12.08
2018-12-22T20:14:37.071Z,12.15
2018-12-22T20:17:09.047Z,12.14
2018-12-22T20:19:39.415Z,12.13
2018-12-22T20:22:09.556Z,12.20
2018-12-22T20:24:42.739Z,12.26
2018-12-22T20:27:11.796Z,12.24
2018-12-22T20:29:41.588Z,12.18
2018-12-22T20:32:10.576Z,12.23
2018-12-22T20:34:39.620Z,12.27
2018-12-22T20:37:18.934Z,12.22
2018-12-22T20:42:43.210Z,12.19
2018-12-22T20:45:31.718Z,12.13
2018-12-22T20:48:04.931Z,12.10
2018-12-22T20:50:34.428Z,12.07
2018-12-22T20:53:05.670Z,11.99
2018-12-22T20:55:35.344Z,11.94
2018-12-22T20:58:07.966Z,11.99
2018-12-22T21:00:42.825Z,11.98
2018-12-22T21:06:02.935Z,11.89
2018-12-22T21:08:39.859Z,11.92
2018-12-22T21:11:09.285Z,11.85
2018-12-22T21:13:44.708Z,11.80
2018-12-22T21:16:16.079Z,11.78
2018-12-22T21:18:46.205Z,11.86
2018-12-22T21:21:33.097Z,11.88
2018-12-22T21:24:04.091Z,11.86
2018-12-22T21:26:40.295Z,11.83
2018-12-22T21:29:11.223Z,11.75
2018-12-22T21:31:45.437Z,11.69
2018-12-22T21:34:28.185Z,11.75
2018-12-22T21:37:05.175Z,11.70
2018-12-22T21:39:36.277Z,11.63
2018-12-22T21:42:08.199Z,11.64
2018-12-22T21:44:42.026Z,11.57
2018-12-22T21:47:12.751Z,11.56
2018-12-22T21:49:42.290Z,11.48
2018-12-22T21:52:16.628Z,11.49
2018-12-22T21:54:50.508Z,11.36
2018-12-22T21:57:44.342Z,11.29
2018-12-22T22:00:20.954Z,11.26
2018-12-22T22:02:53.368Z,11.28
2018-12-22T22:05:38.659Z,11.40
2018-12-22T22:08:10.111Z,11.48
2018-12-22T22:10:40.527Z,11.48
2018-12-22T22:13:16.373Z,11.55
2018-12-22T22:15:53.216Z,11.52
2018-12-22T22:18:25.906Z,11.46
2018-12-22T22:20:58.515Z,11.51
2018-12-22T22:23:36.138Z,11.55
2018-12-22T22:26:05.358Z,11.51
2018-12-22T22:28:38.203Z,11.50
2018-12-22T22:31:07.798Z,11.46
2018-12-22T22:33:41.691Z,11.53
2018-12-22T22:36:10.912Z,11.51
2018-12-22T22:38:39.834Z,11.55
2018-12-22T22:41:16.155Z,11.58
2018-12-22T22:43:51.251Z,11.53
2018-12-22T22:46:23.716Z,11.28
2018-12-22T22:48:52.188Z,11.53
2018-12-22T22:51:22.896Z,11.48
2018-12-22T22:53:51.802Z,11.45
2018-12-22T22:56:20.538Z,11.54
2018-12-22T22:58:50.087Z,11.54
2018-12-22T23:01:21.098Z,11.49
2018-12-22T23:03:52.963Z,11.51
2018-12-22T23:23:56.709Z,11.70
2018-12-22T23:26:27.760Z,11.36
2018-12-22T23:31:40.542Z,11.69
2018-12-22T23:34:09.249Z,11.72
2018-12-22T23:36:38.250Z,11.66
2018-12-22T23:39:08.402Z,11.69
2018-12-22T23:41:37.263Z,11.71
2018-12-22T23:44:06.912Z,11.71
2018-12-22T23:46:41.996Z,11.66
2018-12-22T23:49:14.262Z,11.76
2018-12-22T23:51:45.366Z,11.82
2018-12-22T23:56:30.273Z,11.83
2018-12-22T23:58:59.538Z,11.90
